sensor_id;sensor_type;location;lat;lon;timestamp;temperature;humidity
19734;DHT22;10018;51.230;7.860;2023-05-07T00:01:38;13.30;99.90
19734;DHT22;10018;51.230;7.860;2023-05-07T00:04:03;13.30;99.90
19734;DHT22;10018;51.230;7.860;2023-05-07T00:06:29;13.30;99.90
19734;DHT22;10018;51.230;7.860;2023-05-07T00:08:56;13.30;99.90
19734;DHT22;10018;51.230;7.860;2023-05-07T00:11:23;13.30;99.90
19734;DHT22;10018;51.230;7.860;2023-05-07T00:13:48;13.20;99.90
19734;DHT22;10018;51.230;7.860;2023-05-07T00:16:14;13.20;99.90
19734;DHT22;10018;51.230;7.860;2023-05-07T00:18:39;13.20;99.90
19734;DHT22;10018;51.230;7.860;2023-05-07T00:21:05;13.20;99.90
19734;DHT22;10018;51.230;7.860;2023-05-07T00:23:33;13.20;99.90
19734;DHT22;10018;51.230;7.860;2023-05-07T00:25:58;13.20;99.90
19734;DHT22;10018;51.230;7.860;2023-05-07T00:28:24;13.20;99.90
19734;DHT22;10018;51.230;7.860;2023-05-07T00:30:50;13.20;99.90
19734;DHT22;10018;51.230;7.860;2023-05-07T00:33:15;13.30;99.90
19734;DHT22;10018;51.230;7.860;2023-05-07T00:35:42;13.20;99.90
19734;DHT22;10018;51.230;7.860;2023-05-07T00:38:07;13.20;99.90
19734;DHT22;10018;51.230;7.860;2023-05-07T00:40:33;13.30;99.90
19734;DHT22;10018;51.230;7.860;2023-05-07T00:43:01;13.30;99.90
19734;DHT22;10018;51.230;7.860;2023-05-07T00:45:27;13.20;99.90
19734;DHT22;10018;51.230;7.860;2023-05-07T00:47:57;13.20;99.90
19734;DHT22;10018;51.230;7.860;2023-05-07T00:50:23;13.20;99.90
19734;DHT22;10018;51.230;7.860;2023-05-07T00:52:49;13.20;99.90
19734;DHT22;10018;51.230;7.860;2023-05-07T00:55:15;13.20;99.90
19734;DHT22;10018;51.230;7.860;2023-05-07T00:57:41;13.20;99.90
19734;DHT22;10018;51.230;7.860;2023-05-07T01:00:08;13.20;99.90
19734;DHT22;10018;51.230;7.860;2023-05-07T01:02:38;13.20;99.90
19734;DHT22;10018;51.230;7.860;2023-05-07T01:05:05;13.20;99.90
19734;DHT22;10018;51.230;7.860;2023-05-07T01:07:32;13.10;99.90
19734;DHT22;10018;51.230;7.860;2023-05-07T01:09:58;13.20;99.90
19734;DHT22;10018;51.230;7.860;2023-05-07T01:12:25;13.20;99.90
19734;DHT22;10018;51.230;7.860;2023-05-07T01:14:51;13.20;99.90
19734;DHT22;10018;51.230;7.860;2023-05-07T01:17:17;13.10;99.90
19734;DHT22;10018;51.230;7.860;2023-05-07T01:19:42;13.20;99.90
19734;DHT22;10018;51.230;7.860;2023-05-07T01:22:10;13.10;99.90
19734;DHT22;10018;51.230;7.860;2023-05-07T01:24:37;13.10;99.90
19734;DHT22;10018;51.230;7.860;2023-05-07T01:27:03;13.10;99.90
19734;DHT22;10018;51.230;7.860;2023-05-07T01:29:28;13.20;99.90
19734;DHT22;10018;51.230;7.860;2023-05-07T01:32:00;13.10;99.90
19734;DHT22;10018;51.230;7.860;2023-05-07T01:34:27;13.10;99.90
19734;DHT22;10018;51.230;7.860;2023-05-07T01:36:54;13.10;99.90
19734;DHT22;10018;51.230;7.860;2023-05-07T01:39:22;13.10;99.90
19734;DHT22;10018;51.230;7.860;2023-05-07T01:41:48;13.00;99.90
19734;DHT22;10018;51.230;7.860;2023-05-07T01:44:15;13.00;99.90
19734;DHT22;10018;51.230;7.860;2023-05-07T01:46:41;13.00;99.90
19734;DHT22;10018;51.230;7.860;2023-05-07T01:49:07;13.00;99.90
19734;DHT22;10018;51.230;7.860;2023-05-07T01:51:33;13.00;99.90
19734;DHT22;10018;51.230;7.860;2023-05-07T01:53:59;13.10;99.90
19734;DHT22;10018;51.230;7.860;2023-05-07T01:56:25;13.00;99.90
19734;DHT22;10018;51.230;7.860;2023-05-07T01:58:51;13.00;99.90
19734;DHT22;10018;51.230;7.860;2023-05-07T02:01:17;13.00;99.90
19734;DHT22;10018;51.230;7.860;2023-05-07T02:03:43;13.00;99.90
19734;DHT22;10018;51.230;7.860;2023-05-07T02:06:09;13.00;99.90
19734;DHT22;10018;51.230;7.860;2023-05-07T02:08:37;13.00;99.90
19734;DHT22;10018;51.230;7.860;2023-05-07T02:11:02;13.00;99.90
19734;DHT22;10018;51.230;7.860;2023-05-07T02:13:31;13.00;99.90
19734;DHT22;10018;51.230;7.860;2023-05-07T02:15:57;13.00;99.90
19734;DHT22;10018;51.230;7.860;2023-05-07T02:18:22;13.00;99.90
19734;DHT22;10018;51.230;7.860;2023-05-07T02:20:48;12.90;99.90
19734;DHT22;10018;51.230;7.860;2023-05-07T02:23:14;12.90;99.90
19734;DHT22;10018;51.230;7.860;2023-05-07T02:25:39;13.00;99.90
19734;DHT22;10018;51.230;7.860;2023-05-07T02:28:05;12.90;99.90
19734;DHT22;10018;51.230;7.860;2023-05-07T02:30:31;12.90;99.90
19734;DHT22;10018;51.230;7.860;2023-05-07T02:32:59;12.90;99.90
19734;DHT22;10018;51.230;7.860;2023-05-07T02:35:25;12.90;99.90
19734;DHT22;10018;51.230;7.860;2023-05-07T02:37:51;12.90;99.90
19734;DHT22;10018;51.230;7.860;2023-05-07T02:40:17;12.90;99.90
19734;DHT22;10018;51.230;7.860;2023-05-07T02:42:44;12.90;99.90
19734;DHT22;10018;51.230;7.860;2023-05-07T02:45:10;12.90;99.90
19734;DHT22;10018;51.230;7.860;2023-05-07T02:47:36;12.90;99.90
19734;DHT22;10018;51.230;7.860;2023-05-07T02:50:02;12.80;99.90
19734;DHT22;10018;51.230;7.860;2023-05-07T02:52:27;12.80;99.90
19734;DHT22;10018;51.230;7.860;2023-05-07T02:54:55;12.80;99.90
19734;DHT22;10018;51.230;7.860;2023-05-07T02:57:21;12.80;99.90
19734;DHT22;10018;51.230;7.860;2023-05-07T02:59:46;12.80;99.90
19734;DHT22;10018;51.230;7.860;2023-05-07T03:02:12;12.80;99.90
19734;DHT22;10018;51.230;7.860;2023-05-07T03:04:39;12.80;99.90
19734;DHT22;10018;51.230;7.860;2023-05-07T03:07:05;12.80;99.90
19734;DHT22;10018;51.230;7.860;2023-05-07T03:09:30;12.70;99.90
19734;DHT22;10018;51.230;7.860;2023-05-07T03:11:58;12.70;99.90
19734;DHT22;10018;51.230;7.860;2023-05-07T03:14:24;12.70;99.90
19734;DHT22;10018;51.230;7.860;2023-05-07T03:16:50;12.70;99.90
19734;DHT22;10018;51.230;7.860;2023-05-07T03:19:16;12.70;99.90
19734;DHT22;10018;51.230;7.860;2023-05-07T03:21:44;12.70;99.90
19734;DHT22;10018;51.230;7.860;2023-05-07T03:24:12;12.70;99.90
19734;DHT22;10018;51.230;7.860;2023-05-07T03:26:37;12.70;99.90
19734;DHT22;10018;51.230;7.860;2023-05-07T03:29:03;12.70;99.90
19734;DHT22;10018;51.230;7.860;2023-05-07T03:31:28;12.70;99.90
19734;DHT22;10018;51.230;7.860;2023-05-07T03:33:56;12.70;99.90
19734;DHT22;10018;51.230;7.860;2023-05-07T03:36:22;12.70;99.90
19734;DHT22;10018;51.230;7.860;2023-05-07T03:38:49;12.60;99.90
19734;DHT22;10018;51.230;7.860;2023-05-07T03:41:15;12.60;99.90
19734;DHT22;10018;51.230;7.860;2023-05-07T03:43:41;12.60;99.90
19734;DHT22;10018;51.230;7.860;2023-05-07T03:46:09;12.60;99.90
19734;DHT22;10018;51.230;7.860;2023-05-07T03:48:34;12.60;99.90
19734;DHT22;10018;51.230;7.860;2023-05-07T03:51:00;12.60;99.90
19734;DHT22;10018;51.230;7.860;2023-05-07T03:53:26;12.60;99.90
19734;DHT22;10018;51.230;7.860;2023-05-07T03:55:53;12.60;99.90
19734;DHT22;10018;51.230;7.860;2023-05-07T03:58:19;12.60;99.90
19734;DHT22;10018;51.230;7.860;2023-05-07T04:00:45;12.60;99.90
19734;DHT22;10018;51.230;7.860;2023-05-07T04:03:11;12.60;99.90
19734;DHT22;10018;51.230;7.860;2023-05-07T04:05:36;12.60;99.90
19734;DHT22;10018;51.230;7.860;2023-05-07T04:08:02;12.60;99.90
19734;DHT22;10018;51.230;7.860;2023-05-07T04:10:29;12.60;99.90
19734;DHT22;10018;51.230;7.860;2023-05-07T04:12:55;12.50;99.90
19734;DHT22;10018;51.230;7.860;2023-05-07T04:15:20;12.50;99.90
19734;DHT22;10018;51.230;7.860;2023-05-07T04:17:46;12.50;99.90
19734;DHT22;10018;51.230;7.860;2023-05-07T04:20:15;12.50;99.90
19734;DHT22;10018;51.230;7.860;2023-05-07T04:22:41;12.50;99.90
19734;DHT22;10018;51.230;7.860;2023-05-07T04:25:08;12.50;99.90
19734;DHT22;10018;51.230;7.860;2023-05-07T04:27:34;12.50;99.90
19734;DHT22;10018;51.230;7.860;2023-05-07T04:30:00;12.60;99.90
19734;DHT22;10018;51.230;7.860;2023-05-07T04:32:26;12.60;99.90
19734;DHT22;10018;51.230;7.860;2023-05-07T04:34:54;12.60;99.90
19734;DHT22;10018;51.230;7.860;2023-05-07T04:37:20;12.60;99.90
19734;DHT22;10018;51.230;7.860;2023-05-07T04:39:46;12.60;99.90
19734;DHT22;10018;51.230;7.860;2023-05-07T04:42:15;12.60;99.90
19734;DHT22;10018;51.230;7.860;2023-05-07T04:44:44;12.60;99.90
19734;DHT22;10018;51.230;7.860;2023-05-07T04:47:10;12.60;99.90
19734;DHT22;10018;51.230;7.860;2023-05-07T04:49:38;12.60;99.90
19734;DHT22;10018;51.230;7.860;2023-05-07T04:52:04;12.70;99.90
19734;DHT22;10018;51.230;7.860;2023-05-07T04:54:30;12.70;99.90
19734;DHT22;10018;51.230;7.860;2023-05-07T04:56:55;12.60;99.90
19734;DHT22;10018;51.230;7.860;2023-05-07T04:59:23;12.70;99.90
19734;DHT22;10018;51.230;7.860;2023-05-07T05:01:49;12.70;99.90
19734;DHT22;10018;51.230;7.860;2023-05-07T05:04:14;12.70;99.90
19734;DHT22;10018;51.230;7.860;2023-05-07T05:06:40;12.80;99.90
19734;DHT22;10018;51.230;7.860;2023-05-07T05:09:08;12.80;99.90
19734;DHT22;10018;51.230;7.860;2023-05-07T05:11:33;12.80;99.90
19734;DHT22;10018;51.230;7.860;2023-05-07T05:13:59;12.90;99.90
19734;DHT22;10018;51.230;7.860;2023-05-07T05:16:25;12.90;99.90
19734;DHT22;10018;51.230;7.860;2023-05-07T05:18:53;12.90;99.90
19734;DHT22;10018;51.230;7.860;2023-05-07T05:21:20;13.00;99.90
19734;DHT22;10018;51.230;7.860;2023-05-07T05:23:46;13.00;99.90
19734;DHT22;10018;51.230;7.860;2023-05-07T05:26:11;13.00;99.90
19734;DHT22;10018;51.230;7.860;2023-05-07T05:28:37;13.10;99.90
19734;DHT22;10018;51.230;7.860;2023-05-07T05:31:02;13.10;99.90
19734;DHT22;10018;51.230;7.860;2023-05-07T05:33:28;13.20;99.90
19734;DHT22;10018;51.230;7.860;2023-05-07T05:35:54;13.20;99.90
19734;DHT22;10018;51.230;7.860;2023-05-07T05:38:20;13.30;99.90
19734;DHT22;10018;51.230;7.860;2023-05-07T05:40:46;13.40;99.90
19734;DHT22;10018;51.230;7.860;2023-05-07T05:43:15;13.50;99.90
19734;DHT22;10018;51.230;7.860;2023-05-07T05:45:40;13.50;99.90
19734;DHT22;10018;51.230;7.860;2023-05-07T05:48:06;13.50;99.90
19734;DHT22;10018;51.230;7.860;2023-05-07T05:50:32;13.60;99.90
19734;DHT22;10018;51.230;7.860;2023-05-07T05:52:57;13.60;99.90
19734;DHT22;10018;51.230;7.860;2023-05-07T05:55:23;13.70;99.90
19734;DHT22;10018;51.230;7.860;2023-05-07T05:57:49;13.80;99.90
19734;DHT22;10018;51.230;7.860;2023-05-07T06:00:16;13.90;99.90
19734;DHT22;10018;51.230;7.860;2023-05-07T06:02:41;14.00;99.90
19734;DHT22;10018;51.230;7.860;2023-05-07T06:05:09;14.00;99.90
19734;DHT22;10018;51.230;7.860;2023-05-07T06:07:35;14.10;99.90
19734;DHT22;10018;51.230;7.860;2023-05-07T06:10:04;14.10;99.90
19734;DHT22;10018;51.230;7.860;2023-05-07T06:12:29;14.20;99.90
19734;DHT22;10018;51.230;7.860;2023-05-07T06:14:55;14.20;99.90
19734;DHT22;10018;51.230;7.860;2023-05-07T06:17:23;14.30;99.90
19734;DHT22;10018;51.230;7.860;2023-05-07T06:19:48;14.30;99.90
19734;DHT22;10018;51.230;7.860;2023-05-07T06:22:14;14.50;99.90
19734;DHT22;10018;51.230;7.860;2023-05-07T06:24:39;14.60;99.90
19734;DHT22;10018;51.230;7.860;2023-05-07T06:27:05;14.60;99.90
19734;DHT22;10018;51.230;7.860;2023-05-07T06:29:33;14.70;99.90
19734;DHT22;10018;51.230;7.860;2023-05-07T06:32:08;14.70;99.90
19734;DHT22;10018;51.230;7.860;2023-05-07T06:34:34;14.90;99.90
19734;DHT22;10018;51.230;7.860;2023-05-07T06:36:59;14.90;99.90
19734;DHT22;10018;51.230;7.860;2023-05-07T06:39:25;15.10;99.90
19734;DHT22;10018;51.230;7.860;2023-05-07T06:41:51;15.20;99.90
19734;DHT22;10018;51.230;7.860;2023-05-07T06:44:16;15.30;99.90
19734;DHT22;10018;51.230;7.860;2023-05-07T06:46:42;15.50;99.90
19734;DHT22;10018;51.230;7.860;2023-05-07T06:49:07;15.60;99.90
19734;DHT22;10018;51.230;7.860;2023-05-07T06:51:33;15.70;99.90
19734;DHT22;10018;51.230;7.860;2023-05-07T06:53:59;15.80;99.90
19734;DHT22;10018;51.230;7.860;2023-05-07T06:56:24;15.90;99.90
19734;DHT22;10018;51.230;7.860;2023-05-07T06:58:50;16.10;99.90
19734;DHT22;10018;51.230;7.860;2023-05-07T07:01:16;16.30;99.90
19734;DHT22;10018;51.230;7.860;2023-05-07T07:03:41;16.40;99.90
19734;DHT22;10018;51.230;7.860;2023-05-07T07:06:07;16.50;99.90
19734;DHT22;10018;51.230;7.860;2023-05-07T07:08:35;16.60;99.90
19734;DHT22;10018;51.230;7.860;2023-05-07T07:11:00;16.70;99.90
19734;DHT22;10018;51.230;7.860;2023-05-07T07:13:26;16.80;99.90
19734;DHT22;10018;51.230;7.860;2023-05-07T07:15:52;16.90;99.90
19734;DHT22;10018;51.230;7.860;2023-05-07T07:18:18;16.90;99.90
19734;DHT22;10018;51.230;7.860;2023-05-07T07:20:46;17.10;99.90
19734;DHT22;10018;51.230;7.860;2023-05-07T07:23:12;17.20;99.90
19734;DHT22;10018;51.230;7.860;2023-05-07T07:25:37;17.20;99.90
19734;DHT22;10018;51.230;7.860;2023-05-07T07:28:05;17.20;99.90
19734;DHT22;10018;51.230;7.860;2023-05-07T07:30:31;17.30;99.90
19734;DHT22;10018;51.230;7.860;2023-05-07T07:32:59;17.50;99.90
19734;DHT22;10018;51.230;7.860;2023-05-07T07:35:32;17.50;99.90
19734;DHT22;10018;51.230;7.860;2023-05-07T07:37:58;17.70;99.90
19734;DHT22;10018;51.230;7.860;2023-05-07T07:40:24;18.00;99.90
19734;DHT22;10018;51.230;7.860;2023-05-07T07:42:52;18.20;99.90
19734;DHT22;10018;51.230;7.860;2023-05-07T07:45:18;18.30;99.90
19734;DHT22;10018;51.230;7.860;2023-05-07T07:47:44;18.30;99.90
19734;DHT22;10018;51.230;7.860;2023-05-07T07:50:10;18.40;99.90
19734;DHT22;10018;51.230;7.860;2023-05-07T07:52:35;18.60;99.90
19734;DHT22;10018;51.230;7.860;2023-05-07T07:55:01;18.70;99.90
19734;DHT22;10018;51.230;7.860;2023-05-07T07:57:27;18.70;99.90
19734;DHT22;10018;51.230;7.860;2023-05-07T07:59:52;18.50;99.90
19734;DHT22;10018;51.230;7.860;2023-05-07T08:02:18;18.50;99.90
19734;DHT22;10018;51.230;7.860;2023-05-07T08:04:46;18.50;99.90
19734;DHT22;10018;51.230;7.860;2023-05-07T08:07:14;18.80;99.90
19734;DHT22;10018;51.230;7.860;2023-05-07T08:09:40;18.80;99.90
19734;DHT22;10018;51.230;7.860;2023-05-07T08:12:06;19.00;99.90
19734;DHT22;10018;51.230;7.860;2023-05-07T08:14:33;19.10;99.90
19734;DHT22;10018;51.230;7.860;2023-05-07T08:16:58;19.20;99.90
19734;DHT22;10018;51.230;7.860;2023-05-07T08:19:24;19.20;99.90
19734;DHT22;10018;51.230;7.860;2023-05-07T08:21:50;19.10;99.90
19734;DHT22;10018;51.230;7.860;2023-05-07T08:24:16;19.20;99.90
19734;DHT22;10018;51.230;7.860;2023-05-07T08:26:43;19.20;99.90
19734;DHT22;10018;51.230;7.860;2023-05-07T08:31:39;19.10;99.90
19734;DHT22;10018;51.230;7.860;2023-05-07T08:34:05;19.20;99.90
19734;DHT22;10018;51.230;7.860;2023-05-07T08:36:31;19.30;99.90
19734;DHT22;10018;51.230;7.860;2023-05-07T08:38:57;19.10;99.90
19734;DHT22;10018;51.230;7.860;2023-05-07T08:41:23;19.10;99.90
19734;DHT22;10018;51.230;7.860;2023-05-07T08:43:50;19.20;99.90
19734;DHT22;10018;51.230;7.860;2023-05-07T08:46:20;19.30;99.90
19734;DHT22;10018;51.230;7.860;2023-05-07T08:48:50;19.40;99.90
19734;DHT22;10018;51.230;7.860;2023-05-07T08:51:18;19.70;99.90
19734;DHT22;10018;51.230;7.860;2023-05-07T08:53:44;19.80;99.90
19734;DHT22;10018;51.230;7.860;2023-05-07T08:56:11;20.00;99.90
19734;DHT22;10018;51.230;7.860;2023-05-07T08:58:37;20.00;99.90
19734;DHT22;10018;51.230;7.860;2023-05-07T09:01:09;20.00;99.90
19734;DHT22;10018;51.230;7.860;2023-05-07T09:03:37;20.10;99.90
19734;DHT22;10018;51.230;7.860;2023-05-07T09:06:03;20.10;99.90
19734;DHT22;10018;51.230;7.860;2023-05-07T09:08:31;20.30;99.90
19734;DHT22;10018;51.230;7.860;2023-05-07T09:10:57;20.40;99.90
19734;DHT22;10018;51.230;7.860;2023-05-07T09:13:23;20.40;99.90
19734;DHT22;10018;51.230;7.860;2023-05-07T09:15:48;20.30;99.90
19734;DHT22;10018;51.230;7.860;2023-05-07T09:18:14;20.50;99.90
19734;DHT22;10018;51.230;7.860;2023-05-07T09:20:41;20.70;99.90
19734;DHT22;10018;51.230;7.860;2023-05-07T09:23:07;20.80;99.90
19734;DHT22;10018;51.230;7.860;2023-05-07T09:25:34;21.10;99.90
19734;DHT22;10018;51.230;7.860;2023-05-07T09:28:00;21.10;99.90
19734;DHT22;10018;51.230;7.860;2023-05-07T09:30:31;21.20;99.90
19734;DHT22;10018;51.230;7.860;2023-05-07T09:32:58;21.20;99.90
19734;DHT22;10018;51.230;7.860;2023-05-07T09:35:26;21.00;99.90
19734;DHT22;10018;51.230;7.860;2023-05-07T09:37:57;21.00;99.90
19734;DHT22;10018;51.230;7.860;2023-05-07T09:40:24;21.00;99.90
19734;DHT22;10018;51.230;7.860;2023-05-07T09:42:50;21.20;99.90
19734;DHT22;10018;51.230;7.860;2023-05-07T09:45:26;21.30;99.90
19734;DHT22;10018;51.230;7.860;2023-05-07T09:47:55;21.30;99.90
19734;DHT22;10018;51.230;7.860;2023-05-07T09:50:26;21.30;99.90
19734;DHT22;10018;51.230;7.860;2023-05-07T09:52:54;21.20;99.90
19734;DHT22;10018;51.230;7.860;2023-05-07T09:55:23;21.30;99.90
19734;DHT22;10018;51.230;7.860;2023-05-07T09:57:55;21.20;99.90
19734;DHT22;10018;51.230;7.860;2023-05-07T10:00:22;21.30;99.90
19734;DHT22;10018;51.230;7.860;2023-05-07T10:02:51;21.30;99.90
19734;DHT22;10018;51.230;7.860;2023-05-07T10:05:21;21.30;99.90
19734;DHT22;10018;51.230;7.860;2023-05-07T10:07:50;21.40;99.90
19734;DHT22;10018;51.230;7.860;2023-05-07T10:10:17;21.60;99.90
19734;DHT22;10018;51.230;7.860;2023-05-07T10:12:43;21.80;99.90
19734;DHT22;10018;51.230;7.860;2023-05-07T10:15:09;21.90;99.90
19734;DHT22;10018;51.230;7.860;2023-05-07T10:17:40;21.80;99.90
19734;DHT22;10018;51.230;7.860;2023-05-07T10:20:07;21.70;99.90
19734;DHT22;10018;51.230;7.860;2023-05-07T10:22:38;21.80;99.90
19734;DHT22;10018;51.230;7.860;2023-05-07T10:25:10;21.70;99.90
19734;DHT22;10018;51.230;7.860;2023-05-07T10:27:37;21.50;99.90
19734;DHT22;10018;51.230;7.860;2023-05-07T10:32:54;21.50;99.90
19734;DHT22;10018;51.230;7.860;2023-05-07T10:35:24;21.40;99.90
19734;DHT22;10018;51.230;7.860;2023-05-07T10:37:51;21.40;99.90
19734;DHT22;10018;51.230;7.860;2023-05-07T10:40:17;21.40;99.90
19734;DHT22;10018;51.230;7.860;2023-05-07T10:43:04;21.30;99.90
19734;DHT22;10018;51.230;7.860;2023-05-07T10:45:33;21.20;99.90
19734;DHT22;10018;51.230;7.860;2023-05-07T10:48:05;21.30;99.90
19734;DHT22;10018;51.230;7.860;2023-05-07T10:50:31;21.30;99.90
19734;DHT22;10018;51.230;7.860;2023-05-07T10:55:46;21.10;99.90
19734;DHT22;10018;51.230;7.860;2023-05-07T10:58:32;21.10;99.90
19734;DHT22;10018;51.230;7.860;2023-05-07T11:01:01;21.10;99.90
19734;DHT22;10018;51.230;7.860;2023-05-07T11:03:28;21.10;99.90
19734;DHT22;10018;51.230;7.860;2023-05-07T11:06:12;21.00;99.90
19734;DHT22;10018;51.230;7.860;2023-05-07T11:08:56;21.00;99.90
19734;DHT22;10018;51.230;7.860;2023-05-07T11:14:10;20.90;99.90
19734;DHT22;10018;51.230;7.860;2023-05-07T11:16:36;20.80;99.90
19734;DHT22;10018;51.230;7.860;2023-05-07T11:19:03;20.70;99.90
19734;DHT22;10018;51.230;7.860;2023-05-07T11:21:39;20.50;99.90
19734;DHT22;10018;51.230;7.860;2023-05-07T11:24:09;20.40;99.90
19734;DHT22;10018;51.230;7.860;2023-05-07T11:26:49;20.40;99.90
19734;DHT22;10018;51.230;7.860;2023-05-07T11:29:20;20.50;99.90
19734;DHT22;10018;51.230;7.860;2023-05-07T11:31:52;20.50;99.90
19734;DHT22;10018;51.230;7.860;2023-05-07T11:34:22;20.60;99.90
19734;DHT22;10018;51.230;7.860;2023-05-07T11:36:49;20.70;99.90
19734;DHT22;10018;51.230;7.860;2023-05-07T11:39:30;20.70;99.90
19734;DHT22;10018;51.230;7.860;2023-05-07T11:41:57;20.70;99.90
19734;DHT22;10018;51.230;7.860;2023-05-07T11:44:25;20.60;99.90
19734;DHT22;10018;51.230;7.860;2023-05-07T11:46:50;20.40;99.90
19734;DHT22;10018;51.230;7.860;2023-05-07T11:49:17;20.10;99.90
19734;DHT22;10018;51.230;7.860;2023-05-07T11:51:42;20.10;99.90
19734;DHT22;10018;51.230;7.860;2023-05-07T11:54:08;20.00;99.90
19734;DHT22;10018;51.230;7.860;2023-05-07T11:56:37;19.90;99.90
19734;DHT22;10018;51.230;7.860;2023-05-07T11:59:08;19.80;99.90
19734;DHT22;10018;51.230;7.860;2023-05-07T12:01:35;19.80;99.90
19734;DHT22;10018;51.230;7.860;2023-05-07T12:04:03;19.80;99.90
19734;DHT22;10018;51.230;7.860;2023-05-07T12:06:30;19.70;99.90
19734;DHT22;10018;51.230;7.860;2023-05-07T12:08:58;19.70;99.90
19734;DHT22;10018;51.230;7.860;2023-05-07T12:11:25;19.70;99.90
19734;DHT22;10018;51.230;7.860;2023-05-07T12:13:51;19.60;99.90
19734;DHT22;10018;51.230;7.860;2023-05-07T12:16:17;19.20;99.90
19734;DHT22;10018;51.230;7.860;2023-05-07T12:18:44;18.90;99.90
19734;DHT22;10018;51.230;7.860;2023-05-07T12:21:10;18.50;99.90
19734;DHT22;10018;51.230;7.860;2023-05-07T12:23:36;18.10;99.90
19734;DHT22;10018;51.230;7.860;2023-05-07T12:26:03;17.80;99.90
19734;DHT22;10018;51.230;7.860;2023-05-07T12:28:29;17.70;99.90
19734;DHT22;10018;51.230;7.860;2023-05-07T12:30:55;17.60;99.90
19734;DHT22;10018;51.230;7.860;2023-05-07T12:33:26;17.60;99.90
19734;DHT22;10018;51.230;7.860;2023-05-07T12:35:53;17.40;99.90
19734;DHT22;10018;51.230;7.860;2023-05-07T12:38:19;17.30;99.90
19734;DHT22;10018;51.230;7.860;2023-05-07T12:40:50;17.10;99.90
19734;DHT22;10018;51.230;7.860;2023-05-07T12:43:28;17.10;99.90
19734;DHT22;10018;51.230;7.860;2023-05-07T12:45:57;17.10;99.90
19734;DHT22;10018;51.230;7.860;2023-05-07T12:48:24;17.30;99.90
19734;DHT22;10018;51.230;7.860;2023-05-07T12:51:00;17.30;99.90
19734;DHT22;10018;51.230;7.860;2023-05-07T12:53:27;17.30;99.90
19734;DHT22;10018;51.230;7.860;2023-05-07T12:55:55;17.40;99.90
19734;DHT22;10018;51.230;7.860;2023-05-07T12:58:27;17.40;99.90
19734;DHT22;10018;51.230;7.860;2023-05-07T13:00:54;17.40;99.90
19734;DHT22;10018;51.230;7.860;2023-05-07T13:03:27;17.30;99.90
19734;DHT22;10018;51.230;7.860;2023-05-07T13:05:54;17.40;99.90
19734;DHT22;10018;51.230;7.860;2023-05-07T13:08:27;17.30;99.90
19734;DHT22;10018;51.230;7.860;2023-05-07T13:10:53;17.30;99.90
19734;DHT22;10018;51.230;7.860;2023-05-07T13:13:19;17.30;99.90
19734;DHT22;10018;51.230;7.860;2023-05-07T13:15:46;17.10;99.90
19734;DHT22;10018;51.230;7.860;2023-05-07T13:18:11;17.20;99.90
19734;DHT22;10018;51.230;7.860;2023-05-07T13:20:37;17.20;99.90
19734;DHT22;10018;51.230;7.860;2023-05-07T13:23:03;17.40;99.90
19734;DHT22;10018;51.230;7.860;2023-05-07T13:25:30;17.60;99.90
19734;DHT22;10018;51.230;7.860;2023-05-07T13:27:59;17.70;99.90
19734;DHT22;10018;51.230;7.860;2023-05-07T13:30:25;17.80;99.90
19734;DHT22;10018;51.230;7.860;2023-05-07T13:32:51;17.90;99.90
19734;DHT22;10018;51.230;7.860;2023-05-07T13:35:17;17.90;99.90
19734;DHT22;10018;51.230;7.860;2023-05-07T13:37:43;18.00;99.90
19734;DHT22;10018;51.230;7.860;2023-05-07T13:40:09;18.00;99.90
19734;DHT22;10018;51.230;7.860;2023-05-07T13:42:37;17.90;99.90
19734;DHT22;10018;51.230;7.860;2023-05-07T13:45:03;18.00;99.90
19734;DHT22;10018;51.230;7.860;2023-05-07T13:47:30;18.20;99.90
19734;DHT22;10018;51.230;7.860;2023-05-07T13:49:56;18.20;99.90
19734;DHT22;10018;51.230;7.860;2023-05-07T13:52:21;18.30;99.90
19734;DHT22;10018;51.230;7.860;2023-05-07T13:54:47;18.30;99.90
19734;DHT22;10018;51.230;7.860;2023-05-07T13:57:12;18.40;99.90
19734;DHT22;10018;51.230;7.860;2023-05-07T13:59:38;18.50;99.90
19734;DHT22;10018;51.230;7.860;2023-05-07T14:02:04;18.40;99.90
19734;DHT22;10018;51.230;7.860;2023-05-07T14:04:30;18.30;99.90
19734;DHT22;10018;51.230;7.860;2023-05-07T14:06:56;18.30;99.90
19734;DHT22;10018;51.230;7.860;2023-05-07T14:09:21;18.30;99.90
19734;DHT22;10018;51.230;7.860;2023-05-07T14:11:47;18.20;99.90
19734;DHT22;10018;51.230;7.860;2023-05-07T14:14:19;18.20;99.90
19734;DHT22;10018;51.230;7.860;2023-05-07T14:16:45;18.20;99.90
19734;DHT22;10018;51.230;7.860;2023-05-07T14:19:11;18.10;99.90
19734;DHT22;10018;51.230;7.860;2023-05-07T14:21:37;18.00;99.90
19734;DHT22;10018;51.230;7.860;2023-05-07T14:24:03;17.90;99.90
19734;DHT22;10018;51.230;7.860;2023-05-07T14:26:32;17.90;99.90
19734;DHT22;10018;51.230;7.860;2023-05-07T14:28:58;17.90;99.90
19734;DHT22;10018;51.230;7.860;2023-05-07T14:31:24;17.80;99.90
19734;DHT22;10018;51.230;7.860;2023-05-07T14:33:49;17.70;99.90
19734;DHT22;10018;51.230;7.860;2023-05-07T14:36:16;17.70;99.90
19734;DHT22;10018;51.230;7.860;2023-05-07T14:38:42;17.60;99.90
19734;DHT22;10018;51.230;7.860;2023-05-07T14:41:08;17.60;99.90
19734;DHT22;10018;51.230;7.860;2023-05-07T14:43:33;17.50;99.90
19734;DHT22;10018;51.230;7.860;2023-05-07T14:45:59;17.50;99.90
19734;DHT22;10018;51.230;7.860;2023-05-07T14:48:24;17.50;99.90
19734;DHT22;10018;51.230;7.860;2023-05-07T14:50:52;17.50;99.90
19734;DHT22;10018;51.230;7.860;2023-05-07T14:53:18;17.40;99.90
19734;DHT22;10018;51.230;7.860;2023-05-07T14:55:43;17.40;99.90
19734;DHT22;10018;51.230;7.860;2023-05-07T14:58:10;17.50;99.90
19734;DHT22;10018;51.230;7.860;2023-05-07T15:00:36;17.40;99.90
19734;DHT22;10018;51.230;7.860;2023-05-07T15:03:06;17.40;99.90
19734;DHT22;10018;51.230;7.860;2023-05-07T15:05:33;17.30;99.90
19734;DHT22;10018;51.230;7.860;2023-05-07T15:07:58;17.30;99.90
19734;DHT22;10018;51.230;7.860;2023-05-07T15:10:25;17.20;99.90
19734;DHT22;10018;51.230;7.860;2023-05-07T15:12:53;17.20;99.90
19734;DHT22;10018;51.230;7.860;2023-05-07T15:15:18;17.20;99.90
19734;DHT22;10018;51.230;7.860;2023-05-07T15:17:44;17.20;99.90
19734;DHT22;10018;51.230;7.860;2023-05-07T15:20:10;17.10;99.90
19734;DHT22;10018;51.230;7.860;2023-05-07T15:22:36;17.10;99.90
19734;DHT22;10018;51.230;7.860;2023-05-07T15:25:03;17.20;99.90
19734;DHT22;10018;51.230;7.860;2023-05-07T15:27:29;17.10;99.90
19734;DHT22;10018;51.230;7.860;2023-05-07T15:29:56;17.10;99.90
19734;DHT22;10018;51.230;7.860;2023-05-07T15:32:21;17.10;99.90
19734;DHT22;10018;51.230;7.860;2023-05-07T15:34:47;17.20;99.90
19734;DHT22;10018;51.230;7.860;2023-05-07T15:37:17;17.20;99.90
19734;DHT22;10018;51.230;7.860;2023-05-07T15:39:43;17.20;99.90